sensor_id;sensor_type;location;lat;lon;timestamp;P1;durP1;ratioP1;P2;durP2;ratioP2
52894;SDS011;38759;53.396;6.722;2022-08-11T00:00:35;11.35;;;3.38;;
52894;SDS011;38759;53.396;6.722;2022-08-11T00:03:07;9.07;;;3.13;;
52894;SDS011;38759;53.396;6.722;2022-08-11T00:05:51;5.65;;;3.25;;
52894;SDS011;38759;53.396;6.722;2022-08-11T00:08:24;5.95;;;3.20;;
52894;SDS011;38759;53.396;6.722;2022-08-11T00:10:52;5.97;;;3.00;;
52894;SDS011;38759;53.396;6.722;2022-08-11T00:13:21;5.75;;;2.85;;
52894;SDS011;38759;53.396;6.722;2022-08-11T00:15:55;8.73;;;3.20;;
52894;SDS011;38759;53.396;6.722;2022-08-11T00:18:21;11.98;;;3.45;;
52894;SDS011;38759;53.396;6.722;2022-08-11T00:20:47;13.98;;;3.05;;
52894;SDS011;38759;53.396;6.722;2022-08-11T00:23:15;8.70;;;3.30;;
52894;SDS011;38759;53.396;6.722;2022-08-11T00:25:46;8.27;;;2.97;;
52894;SDS011;38759;53.396;6.722;2022-08-11T00:28:29;5.60;;;3.30;;
52894;SDS011;38759;53.396;6.722;2022-08-11T00:30:57;7.60;;;3.10;;
52894;SDS011;38759;53.396;6.722;2022-08-11T00:33:34;5.88;;;3.15;;
52894;SDS011;38759;53.396;6.722;2022-08-11T00:36:03;6.22;;;2.80;;
52894;SDS011;38759;53.396;6.722;2022-08-11T00:38:32;7.18;;;3.30;;
52894;SDS011;38759;53.396;6.722;2022-08-11T00:41:25;17.92;;;3.47;;
52894;SDS011;38759;53.396;6.722;2022-08-11T00:47:08;6.72;;;3.42;;
52894;SDS011;38759;53.396;6.722;2022-08-11T00:52:12;4.75;;;3.17;;
52894;SDS011;38759;53.396;6.722;2022-08-11T01:00:32;5.93;;;3.28;;
52894;SDS011;38759;53.396;6.722;2022-08-11T01:06:20;9.23;;;4.03;;
52894;SDS011;38759;53.396;6.722;2022-08-11T01:50:48;7.13;;;4.30;;
52894;SDS011;38759;53.396;6.722;2022-08-11T01:53:37;7.35;;;3.90;;
52894;SDS011;38759;53.396;6.722;2022-08-11T02:12:50;10.65;;;4.35;;
52894;SDS011;38759;53.396;6.722;2022-08-11T02:15:37;10.07;;;4.60;;
52894;SDS011;38759;53.396;6.722;2022-08-11T02:23:52;9.50;;;4.85;;
52894;SDS011;38759;53.396;6.722;2022-08-11T02:26:24;16.20;;;5.18;;
52894;SDS011;38759;53.396;6.722;2022-08-11T02:28:58;13.07;;;5.70;;
52894;SDS011;38759;53.396;6.722;2022-08-11T02:31:52;11.23;;;5.05;;
52894;SDS011;38759;53.396;6.722;2022-08-11T02:57:01;9.88;;;5.03;;
52894;SDS011;38759;53.396;6.722;2022-08-11T02:59:46;10.02;;;4.72;;
52894;SDS011;38759;53.396;6.722;2022-08-11T03:05:32;12.93;;;5.07;;
52894;SDS011;38759;53.396;6.722;2022-08-11T03:14:13;13.52;;;5.65;;
52894;SDS011;38759;53.396;6.722;2022-08-11T03:17:08;13.85;;;5.95;;
52894;SDS011;38759;53.396;6.722;2022-08-11T03:22:57;10.98;;;5.70;;
52894;SDS011;38759;53.396;6.722;2022-08-11T03:25:54;12.68;;;6.80;;
52894;SDS011;38759;53.396;6.722;2022-08-11T03:31:17;10.10;;;5.70;;
52894;SDS011;38759;53.396;6.722;2022-08-11T03:33:52;12.43;;;6.60;;
52894;SDS011;38759;53.396;6.722;2022-08-11T03:45:51;12.75;;;6.00;;
52894;SDS011;38759;53.396;6.722;2022-08-11T03:51:52;9.30;;;6.18;;
52894;SDS011;38759;53.396;6.722;2022-08-11T03:57:26;13.80;;;6.93;;
52894;SDS011;38759;53.396;6.722;2022-08-11T04:11:11;15.52;;;6.15;;
52894;SDS011;38759;53.396;6.722;2022-08-11T04:36:56;11.75;;;6.05;;
52894;SDS011;38759;53.396;6.722;2022-08-11T04:48:55;10.10;;;6.07;;
52894;SDS011;38759;53.396;6.722;2022-08-11T04:55:31;11.35;;;6.63;;
52894;SDS011;38759;53.396;6.722;2022-08-11T05:13:00;12.00;;;7.07;;
52894;SDS011;38759;53.396;6.722;2022-08-11T05:15:53;16.52;;;7.38;;
52894;SDS011;38759;53.396;6.722;2022-08-11T05:18:48;12.65;;;6.85;;
52894;SDS011;38759;53.396;6.722;2022-08-11T05:21:35;10.30;;;7.22;;
52894;SDS011;38759;53.396;6.722;2022-08-11T05:24:30;15.13;;;6.57;;
52894;SDS011;38759;53.396;6.722;2022-08-11T05:27:19;16.73;;;8.23;;
52894;SDS011;38759;53.396;6.722;2022-08-11T05:30:11;13.32;;;8.82;;
52894;SDS011;38759;53.396;6.722;2022-08-11T05:33:00;16.45;;;8.50;;
52894;SDS011;38759;53.396;6.722;2022-08-11T05:35:49;12.55;;;7.90;;
52894;SDS011;38759;53.396;6.722;2022-08-11T05:38:25;12.32;;;6.50;;
52894;SDS011;38759;53.396;6.722;2022-08-11T05:41:11;20.95;;;9.20;;
52894;SDS011;38759;53.396;6.722;2022-08-11T05:43:59;19.75;;;10.85;;
52894;SDS011;38759;53.396;6.722;2022-08-11T05:46:46;17.42;;;9.18;;
52894;SDS011;38759;53.396;6.722;2022-08-11T05:49:32;13.30;;;7.38;;
52894;SDS011;38759;53.396;6.722;2022-08-11T05:52:21;11.38;;;6.88;;
52894;SDS011;38759;53.396;6.722;2022-08-11T05:55:08;12.20;;;7.63;;
52894;SDS011;38759;53.396;6.722;2022-08-11T06:00:20;12.85;;;9.05;;
52894;SDS011;38759;53.396;6.722;2022-08-11T06:02:52;14.07;;;8.32;;
52894;SDS011;38759;53.396;6.722;2022-08-11T06:05:21;14.85;;;9.02;;
52894;SDS011;38759;53.396;6.722;2022-08-11T06:07:48;10.93;;;9.07;;
52894;SDS011;38759;53.396;6.722;2022-08-11T06:10:30;14.23;;;8.32;;
52894;SDS011;38759;53.396;6.722;2022-08-11T06:12:59;12.82;;;8.98;;
52894;SDS011;38759;53.396;6.722;2022-08-11T06:15:25;13.98;;;9.35;;
52894;SDS011;38759;53.396;6.722;2022-08-11T06:17:52;15.60;;;8.55;;
52894;SDS011;38759;53.396;6.722;2022-08-11T06:20:19;12.48;;;7.47;;
52894;SDS011;38759;53.396;6.722;2022-08-11T06:22:54;11.50;;;7.25;;
52894;SDS011;38759;53.396;6.722;2022-08-11T06:25:21;9.35;;;6.15;;
52894;SDS011;38759;53.396;6.722;2022-08-11T06:27:54;12.02;;;7.88;;
52894;SDS011;38759;53.396;6.722;2022-08-11T06:30:31;14.70;;;7.45;;
52894;SDS011;38759;53.396;6.722;2022-08-11T06:33:12;8.75;;;7.43;;
52894;SDS011;38759;53.396;6.722;2022-08-11T06:36:04;9.80;;;6.78;;
52894;SDS011;38759;53.396;6.722;2022-08-11T06:38:43;10.05;;;6.10;;
52894;SDS011;38759;53.396;6.722;2022-08-11T06:41:21;9.77;;;6.43;;
52894;SDS011;38759;53.396;6.722;2022-08-11T06:43:59;10.95;;;6.47;;
52894;SDS011;38759;53.396;6.722;2022-08-11T06:46:41;10.85;;;7.03;;
52894;SDS011;38759;53.396;6.722;2022-08-11T06:49:12;10.95;;;6.57;;
52894;SDS011;38759;53.396;6.722;2022-08-11T06:52:01;10.77;;;7.10;;
52894;SDS011;38759;53.396;6.722;2022-08-11T06:54:50;10.88;;;6.45;;
52894;SDS011;38759;53.396;6.722;2022-08-11T06:57:29;8.63;;;6.63;;
52894;SDS011;38759;53.396;6.722;2022-08-11T07:00:15;11.15;;;6.20;;
52894;SDS011;38759;53.396;6.722;2022-08-11T07:05:44;13.43;;;6.55;;
52894;SDS011;38759;53.396;6.722;2022-08-11T07:14:05;10.10;;;5.47;;
52894;SDS011;38759;53.396;6.722;2022-08-11T07:16:51;14.43;;;5.40;;
52894;SDS011;38759;53.396;6.722;2022-08-11T07:19:24;9.73;;;5.22;;
52894;SDS011;38759;53.396;6.722;2022-08-11T07:22:11;8.65;;;4.80;;
52894;SDS011;38759;53.396;6.722;2022-08-11T07:27:46;7.75;;;4.20;;
52894;SDS011;38759;53.396;6.722;2022-08-11T07:30:36;7.25;;;4.30;;
52894;SDS011;38759;53.396;6.722;2022-08-11T07:33:05;10.50;;;3.95;;
52894;SDS011;38759;53.396;6.722;2022-08-11T07:35:32;8.60;;;3.85;;
52894;SDS011;38759;53.396;6.722;2022-08-11T07:38:04;7.90;;;3.85;;
52894;SDS011;38759;53.396;6.722;2022-08-11T07:40:32;7.95;;;4.00;;
52894;SDS011;38759;53.396;6.722;2022-08-11T07:42:58;9.55;;;4.00;;
52894;SDS011;38759;53.396;6.722;2022-08-11T07:45:25;8.88;;;4.28;;
52894;SDS011;38759;53.396;6.722;2022-08-11T07:48:11;5.15;;;3.67;;
52894;SDS011;38759;53.396;6.722;2022-08-11T07:50:57;6.18;;;3.42;;
52894;SDS011;38759;53.396;6.722;2022-08-11T07:53:42;10.80;;;4.05;;
52894;SDS011;38759;53.396;6.722;2022-08-11T07:56:09;7.90;;;3.42;;
52894;SDS011;38759;53.396;6.722;2022-08-11T07:58:38;8.98;;;3.05;;
52894;SDS011;38759;53.396;6.722;2022-08-11T08:01:23;9.18;;;3.80;;
52894;SDS011;38759;53.396;6.722;2022-08-11T08:04:09;7.85;;;3.88;;
52894;SDS011;38759;53.396;6.722;2022-08-11T08:06:56;4.28;;;3.10;;
52894;SDS011;38759;53.396;6.722;2022-08-11T08:09:42;5.07;;;2.60;;
52894;SDS011;38759;53.396;6.722;2022-08-11T08:12:27;5.43;;;2.80;;
52894;SDS011;38759;53.396;6.722;2022-08-11T08:15:13;7.32;;;3.60;;
52894;SDS011;38759;53.396;6.722;2022-08-11T08:17:59;7.60;;;2.97;;
52894;SDS011;38759;53.396;6.722;2022-08-11T08:20:28;6.80;;;2.92;;
52894;SDS011;38759;53.396;6.722;2022-08-11T08:22:57;6.43;;;2.90;;
52894;SDS011;38759;53.396;6.722;2022-08-11T08:25:25;7.70;;;2.60;;
52894;SDS011;38759;53.396;6.722;2022-08-11T08:27:52;7.10;;;3.50;;
52894;SDS011;38759;53.396;6.722;2022-08-11T08:30:20;11.65;;;3.30;;
52894;SDS011;38759;53.396;6.722;2022-08-11T08:33:05;7.32;;;3.03;;
52894;SDS011;38759;53.396;6.722;2022-08-11T08:35:32;4.03;;;2.60;;
52894;SDS011;38759;53.396;6.722;2022-08-11T08:38:00;5.78;;;2.20;;
52894;SDS011;38759;53.396;6.722;2022-08-11T08:40:27;4.70;;;2.40;;
52894;SDS011;38759;53.396;6.722;2022-08-11T08:42:56;3.67;;;1.98;;
52894;SDS011;38759;53.396;6.722;2022-08-11T08:45:26;5.35;;;2.20;;
52894;SDS011;38759;53.396;6.722;2022-08-11T08:47:56;3.97;;;2.10;;
52894;SDS011;38759;53.396;6.722;2022-08-11T08:50:26;8.23;;;2.40;;
52894;SDS011;38759;53.396;6.722;2022-08-11T08:53:14;5.20;;;2.10;;
52894;SDS011;38759;53.396;6.722;2022-08-11T08:55:45;4.70;;;2.05;;
52894;SDS011;38759;53.396;6.722;2022-08-11T08:58:12;9.25;;;2.30;;
52894;SDS011;38759;53.396;6.722;2022-08-11T09:00:42;4.75;;;2.10;;
52894;SDS011;38759;53.396;6.722;2022-08-11T09:03:10;4.90;;;1.67;;
52894;SDS011;38759;53.396;6.722;2022-08-11T09:05:37;7.75;;;1.70;;
52894;SDS011;38759;53.396;6.722;2022-08-11T09:08:04;2.10;;;1.50;;
52894;SDS011;38759;53.396;6.722;2022-08-11T09:10:32;7.00;;;1.83;;
52894;SDS011;38759;53.396;6.722;2022-08-11T09:12:59;2.92;;;1.60;;
52894;SDS011;38759;53.396;6.722;2022-08-11T09:15:28;7.63;;;1.48;;
52894;SDS011;38759;53.396;6.722;2022-08-11T09:17:55;3.33;;;1.38;;
52894;SDS011;38759;53.396;6.722;2022-08-11T09:20:27;8.70;;;1.77;;
52894;SDS011;38759;53.396;6.722;2022-08-11T09:23:00;3.42;;;1.38;;
52894;SDS011;38759;53.396;6.722;2022-08-11T09:25:48;6.28;;;1.70;;
52894;SDS011;38759;53.396;6.722;2022-08-11T09:28:35;4.78;;;1.55;;
52894;SDS011;38759;53.396;6.722;2022-08-11T09:31:01;4.10;;;1.50;;
52894;SDS011;38759;53.396;6.722;2022-08-11T09:33:29;3.13;;;1.63;;
52894;SDS011;38759;53.396;6.722;2022-08-11T09:35:57;4.10;;;1.30;;
52894;SDS011;38759;53.396;6.722;2022-08-11T09:38:44;8.55;;;1.30;;
52894;SDS011;38759;53.396;6.722;2022-08-11T09:41:30;4.40;;;1.40;;
52894;SDS011;38759;53.396;6.722;2022-08-11T09:43:57;5.68;;;1.55;;
52894;SDS011;38759;53.396;6.722;2022-08-11T09:46:43;7.38;;;1.23;;
52894;SDS011;38759;53.396;6.722;2022-08-11T09:49:09;6.85;;;1.67;;
52894;SDS011;38759;53.396;6.722;2022-08-11T09:51:35;8.40;;;1.60;;
52894;SDS011;38759;53.396;6.722;2022-08-11T09:54:01;4.45;;;1.40;;
52894;SDS011;38759;53.396;6.722;2022-08-11T09:56:31;4.00;;;1.65;;
52894;SDS011;38759;53.396;6.722;2022-08-11T09:59:16;3.78;;;1.30;;
52894;SDS011;38759;53.396;6.722;2022-08-11T10:01:45;2.05;;;1.42;;
52894;SDS011;38759;53.396;6.722;2022-08-11T10:04:26;2.92;;;1.25;;
52894;SDS011;38759;53.396;6.722;2022-08-11T10:06:59;3.20;;;1.30;;
52894;SDS011;38759;53.396;6.722;2022-08-11T10:12:21;3.20;;;1.23;;
52894;SDS011;38759;53.396;6.722;2022-08-11T10:14:52;2.45;;;1.20;;
52894;SDS011;38759;53.396;6.722;2022-08-11T10:17:38;4.07;;;1.30;;
52894;SDS011;38759;53.396;6.722;2022-08-11T10:20:31;3.30;;;1.58;;
52894;SDS011;38759;53.396;6.722;2022-08-11T10:23:01;4.30;;;1.30;;
52894;SDS011;38759;53.396;6.722;2022-08-11T10:25:46;4.28;;;1.40;;
52894;SDS011;38759;53.396;6.722;2022-08-11T10:28:31;3.10;;;1.40;;
52894;SDS011;38759;53.396;6.722;2022-08-11T10:30:59;6.75;;;1.40;;
52894;SDS011;38759;53.396;6.722;2022-08-11T10:33:46;1.70;;;1.20;;
52894;SDS011;38759;53.396;6.722;2022-08-11T10:36:27;3.50;;;1.10;;
52894;SDS011;38759;53.396;6.722;2022-08-11T10:39:00;3.67;;;1.30;;
52894;SDS011;38759;53.396;6.722;2022-08-11T10:41:28;3.00;;;1.33;;
52894;SDS011;38759;53.396;6.722;2022-08-11T10:44:13;5.07;;;1.15;;
52894;SDS011;38759;53.396;6.722;2022-08-11T10:46:39;3.03;;;1.15;;
52894;SDS011;38759;53.396;6.722;2022-08-11T10:49:24;7.82;;;1.42;;
52894;SDS011;38759;53.396;6.722;2022-08-11T10:51:51;3.45;;;1.30;;
52894;SDS011;38759;53.396;6.722;2022-08-11T10:54:39;2.40;;;1.10;;
52894;SDS011;38759;53.396;6.722;2022-08-11T10:57:25;1.27;;;1.17;;
52894;SDS011;38759;53.396;6.722;2022-08-11T11:00:11;2.78;;;1.10;;
52894;SDS011;38759;53.396;6.722;2022-08-11T11:02:40;6.97;;;1.05;;
52894;SDS011;38759;53.396;6.722;2022-08-11T11:05:23;1.98;;;1.30;;
52894;SDS011;38759;53.396;6.722;2022-08-11T11:08:00;1.83;;;1.20;;
52894;SDS011;38759;53.396;6.722;2022-08-11T11:10:55;2.97;;;1.30;;
52894;SDS011;38759;53.396;6.722;2022-08-11T11:13:22;4.28;;;1.20;;
52894;SDS011;38759;53.396;6.722;2022-08-11T11:16:08;6.63;;;1.15;;
52894;SDS011;38759;53.396;6.722;2022-08-11T11:18:53;5.95;;;1.20;;
52894;SDS011;38759;53.396;6.722;2022-08-11T11:21:23;4.40;;;1.17;;
52894;SDS011;38759;53.396;6.722;2022-08-11T11:26:34;1.92;;;1.13;;
52894;SDS011;38759;53.396;6.722;2022-08-11T11:37:01;12.50;;;1.30;;
52894;SDS011;38759;53.396;6.722;2022-08-11T11:39:29;2.03;;;1.15;;
52894;SDS011;38759;53.396;6.722;2022-08-11T11:42:04;4.53;;;1.23;;
52894;SDS011;38759;53.396;6.722;2022-08-11T11:44:33;2.88;;;1.20;;
52894;SDS011;38759;53.396;6.722;2022-08-11T11:47:01;2.65;;;1.30;;
52894;SDS011;38759;53.396;6.722;2022-08-11T11:49:28;6.28;;;1.30;;
52894;SDS011;38759;53.396;6.722;2022-08-11T11:51:56;4.85;;;1.30;;
52894;SDS011;38759;53.396;6.722;2022-08-11T11:54:23;3.47;;;1.30;;
52894;SDS011;38759;53.396;6.722;2022-08-11T11:56:54;5.55;;;1.30;;
52894;SDS011;38759;53.396;6.722;2022-08-11T11:59:22;4.30;;;1.23;;
52894;SDS011;38759;53.396;6.722;2022-08-11T12:02:08;3.38;;;1.20;;
52894;SDS011;38759;53.396;6.722;2022-08-11T12:04:41;6.28;;;1.60;;
52894;SDS011;38759;53.396;6.722;2022-08-11T12:07:10;6.88;;;1.20;;
52894;SDS011;38759;53.396;6.722;2022-08-11T12:09:54;6.63;;;1.40;;
52894;SDS011;38759;53.396;6.722;2022-08-11T12:12:21;5.00;;;1.40;;
52894;SDS011;38759;53.396;6.722;2022-08-11T12:15:07;2.65;;;1.23;;
52894;SDS011;38759;53.396;6.722;2022-08-11T12:17:33;9.18;;;1.42;;
52894;SDS011;38759;53.396;6.722;2022-08-11T12:20:00;6.47;;;1.48;;
52894;SDS011;38759;53.396;6.722;2022-08-11T12:22:28;7.80;;;1.77;;
52894;SDS011;38759;53.396;6.722;2022-08-11T12:25:13;5.95;;;1.30;;
52894;SDS011;38759;53.396;6.722;2022-08-11T12:27:57;2.70;;;1.50;;
52894;SDS011;38759;53.396;6.722;2022-08-11T12:30:23;5.88;;;1.50;;
52894;SDS011;38759;53.396;6.722;2022-08-11T12:32:49;5.63;;;1.40;;
52894;SDS011;38759;53.396;6.722;2022-08-11T12:35:16;4.47;;;1.55;;
52894;SDS011;38759;53.396;6.722;2022-08-11T12:37:53;9.80;;;1.50;;
52894;SDS011;38759;53.396;6.722;2022-08-11T12:40:24;3.50;;;1.50;;
52894;SDS011;38759;53.396;6.722;2022-08-11T12:43:11;4.53;;;1.73;;
52894;SDS011;38759;53.396;6.722;2022-08-11T12:45:58;4.80;;;1.60;;
52894;SDS011;38759;53.396;6.722;2022-08-11T12:48:30;5.97;;;1.60;;
52894;SDS011;38759;53.396;6.722;2022-08-11T12:51:24;2.33;;;1.20;;
52894;SDS011;38759;53.396;6.722;2022-08-11T12:54:14;7.72;;;1.50;;
52894;SDS011;38759;53.396;6.722;2022-08-11T12:56:54;3.00;;;1.33;;
52894;SDS011;38759;53.396;6.722;2022-08-11T12:59:56;4.20;;;1.50;;
52894;SDS011;38759;53.396;6.722;2022-08-11T13:02:46;6.93;;;1.50;;
52894;SDS011;38759;53.396;6.722;2022-08-11T13:05:30;3.65;;;1.30;;
52894;SDS011;38759;53.396;6.722;2022-08-11T13:07:58;6.97;;;1.40;;
52894;SDS011;38759;53.396;6.722;2022-08-11T13:10:26;6.55;;;1.50;;
52894;SDS011;38759;53.396;6.722;2022-08-11T13:13:14;7.13;;;1.48;;
52894;SDS011;38759;53.396;6.722;2022-08-11T13:15:42;2.53;;;1.30;;
52894;SDS011;38759;53.396;6.722;2022-08-11T13:18:11;2.42;;;1.30;;
52894;SDS011;38759;53.396;6.722;2022-08-11T13:20:53;3.53;;;1.33;;
52894;SDS011;38759;53.396;6.722;2022-08-11T13:23:21;3.00;;;1.33;;
52894;SDS011;38759;53.396;6.722;2022-08-11T13:25:50;3.60;;;1.38;;
52894;SDS011;38759;53.396;6.722;2022-08-11T13:28:17;4.97;;;1.30;;
52894;SDS011;38759;53.396;6.722;2022-08-11T13:30:45;3.15;;;1.42;;
52894;SDS011;38759;53.396;6.722;2022-08-11T13:33:31;1.30;;;1.05;;
52894;SDS011;38759;53.396;6.722;2022-08-11T13:35:59;6.00;;;1.40;;
52894;SDS011;38759;53.396;6.722;2022-08-11T13:38:26;5.53;;;1.52;;
52894;SDS011;38759;53.396;6.722;2022-08-11T13:40:52;6.03;;;1.38;;
52894;SDS011;38759;53.396;6.722;2022-08-11T13:43:20;4.97;;;1.23;;
52894;SDS011;38759;53.396;6.722;2022-08-11T13:45:47;2.30;;;1.08;;
52894;SDS011;38759;53.396;6.722;2022-08-11T13:48:16;4.78;;;1.30;;
52894;SDS011;38759;53.396;6.722;2022-08-11T13:50:43;5.07;;;1.30;;
52894;SDS011;38759;53.396;6.722;2022-08-11T13:53:28;4.88;;;1.30;;
52894;SDS011;38759;53.396;6.722;2022-08-11T13:55:59;3.38;;;1.20;;
52894;SDS011;38759;53.396;6.722;2022-08-11T13:58:25;4.22;;;1.00;;
52894;SDS011;38759;53.396;6.722;2022-08-11T14:00:52;2.92;;;1.10;;
52894;SDS011;38759;53.396;6.722;2022-08-11T14:03:20;8.30;;;1.30;;
52894;SDS011;38759;53.396;6.722;2022-08-11T14:05:49;3.17;;;1.00;;
52894;SDS011;38759;53.396;6.722;2022-08-11T14:08:23;4.60;;;1.30;;
52894;SDS011;38759;53.396;6.722;2022-08-11T14:10:51;7.05;;;1.10;;
52894;SDS011;38759;53.396;6.722;2022-08-11T14:13:39;2.72;;;1.30;;
52894;SDS011;38759;53.396;6.722;2022-08-11T14:16:08;5.70;;;1.23;;
52894;SDS011;38759;53.396;6.722;2022-08-11T14:18:43;6.20;;;1.30;;
52894;SDS011;38759;53.396;6.722;2022-08-11T14:21:11;4.57;;;1.10;;
52894;SDS011;38759;53.396;6.722;2022-08-11T14:23:58;3.85;;;1.38;;
52894;SDS011;38759;53.396;6.722;2022-08-11T14:26:26;3.63;;;1.20;;
52894;SDS011;38759;53.396;6.722;2022-08-11T14:31:37;1.55;;;1.00;;
52894;SDS011;38759;53.396;6.722;2022-08-11T14:34:08;6.13;;;1.40;;
52894;SDS011;38759;53.396;6.722;2022-08-11T14:36:43;4.40;;;1.20;;
52894;SDS011;38759;53.396;6.722;2022-08-11T14:41:42;3.35;;;1.38;;
52894;SDS011;38759;53.396;6.722;2022-08-11T14:44:40;5.55;;;1.50;;
52894;SDS011;38759;53.396;6.722;2022-08-11T14:47:30;3.80;;;1.13;;
52894;SDS011;38759;53.396;6.722;2022-08-11T14:50:01;3.33;;;1.30;;
52894;SDS011;38759;53.396;6.722;2022-08-11T14:52:30;1.98;;;1.20;;
52894;SDS011;38759;53.396;6.722;2022-08-11T14:54:59;7.57;;;1.50;;
52894;SDS011;38759;53.396;6.722;2022-08-11T14:57:44;3.97;;;1.30;;
52894;SDS011;38759;53.396;6.722;2022-08-11T15:00:12;3.45;;;1.20;;
52894;SDS011;38759;53.396;6.722;2022-08-11T15:02:39;4.47;;;1.20;;
52894;SDS011;38759;53.396;6.722;2022-08-11T15:05:25;4.97;;;1.40;;
52894;SDS011;38759;53.396;6.722;2022-08-11T15:07:52;4.55;;;1.58;;
52894;SDS011;38759;53.396;6.722;2022-08-11T15:10:19;5.30;;;1.40;;
52894;SDS011;38759;53.396;6.722;2022-08-11T15:12:46;3.80;;;1.33;;
52894;SDS011;38759;53.396;6.722;2022-08-11T15:15:12;5.57;;;1.30;;
52894;SDS011;38759;53.396;6.722;2022-08-11T15:20:25;3.58;;;1.30;;
52894;SDS011;38759;53.396;6.722;2022-08-11T15:23:11;5.90;;;1.38;;
52894;SDS011;38759;53.396;6.722;2022-08-11T15:26:10;2.90;;;1.42;;
52894;SDS011;38759;53.396;6.722;2022-08-11T15:28:48;3.97;;;1.48;;
52894;SDS011;38759;53.396;6.722;2022-08-11T15:31:33;3.53;;;1.30;;
52894;SDS011;38759;53.396;6.722;2022-08-11T15:34:20;3.97;;;1.30;;
52894;SDS011;38759;53.396;6.722;2022-08-11T15:37:11;3.08;;;1.10;;
52894;SDS011;38759;53.396;6.722;2022-08-11T15:39:51;5.60;;;1.58;;
52894;SDS011;38759;53.396;6.722;2022-08-11T15:42:52;8.75;;;1.40;;
52894;SDS011;38759;53.396;6.722;2022-08-11T15:46:02;11.75;;;1.50;;
52894;SDS011;38759;53.396;6.722;2022-08-11T15:51:01;4.40;;;1.30;;
52894;SDS011;38759;53.396;6.722;2022-08-11T15:56:06;5.57;;;1.35;;
52894;SDS011;38759;53.396;6.722;2022-08-11T15:58:37;5.75;;;1.50;;
52894;SDS011;38759;53.396;6.722;2022-08-11T16:01:28;3.72;;;1.40;;
52894;SDS011;38759;53.396;6.722;2022-08-11T16:04:18;11.00;;;1.48;;
52894;SDS011;38759;53.396;6.722;2022-08-11T16:12:16;5.70;;;1.33;;
52894;SDS011;38759;53.396;6.722;2022-08-11T16:14:48;7.30;;;1.40;;
52894;SDS011;38759;53.396;6.722;2022-08-11T16:17:40;11.57;;;1.65;;
52894;SDS011;38759;53.396;6.722;2022-08-11T16:20:13;6.95;;;1.48;;
52894;SDS011;38759;53.396;6.722;2022-08-11T16:22:41;4.97;;;1.40;;
52894;SDS011;38759;53.396;6.722;2022-08-11T16:25:18;4.57;;;1.60;;
52894;SDS011;38759;53.396;6.722;2022-08-11T16:27:56;2.58;;;1.30;;
52894;SDS011;38759;53.396;6.722;2022-08-11T16:30:29;3.22;;;1.38;;
52894;SDS011;38759;53.396;6.722;2022-08-11T16:32:57;3.08;;;1.45;;
52894;SDS011;38759;53.396;6.722;2022-08-11T16:35:25;2.70;;;1.52;;
52894;SDS011;38759;53.396;6.722;2022-08-11T16:38:12;4.93;;;1.60;;
52894;SDS011;38759;53.396;6.722;2022-08-11T16:40:57;4.55;;;1.67;;
52894;SDS011;38759;53.396;6.722;2022-08-11T16:43:28;3.65;;;1.40;;
52894;SDS011;38759;53.396;6.722;2022-08-11T16:46:15;3.85;;;1.48;;
52894;SDS011;38759;53.396;6.722;2022-08-11T16:49:01;5.22;;;1.40;;
52894;SDS011;38759;53.396;6.722;2022-08-11T16:51:30;4.95;;;1.30;;
52894;SDS011;38759;53.396;6.722;2022-08-11T16:53:56;5.10;;;1.40;;
52894;SDS011;38759;53.396;6.722;2022-08-11T16:56:31;5.57;;;1.50;;
52894;SDS011;38759;53.396;6.722;2022-08-11T16:59:08;6.05;;;1.80;;
52894;SDS011;38759;53.396;6.722;2022-08-11T17:01:53;2.33;;;1.48;;
52894;SDS011;38759;53.396;6.722;2022-08-11T17:04:42;5.38;;;1.63;;
52894;SDS011;38759;53.396;6.722;2022-08-11T17:07:27;4.80;;;1.50;;
52894;SDS011;38759;53.396;6.722;2022-08-11T17:10:26;5.00;;;1.60;;
52894;SDS011;38759;53.396;6.722;2022-08-11T17:13:25;3.75;;;1.55;;
52894;SDS011;38759;53.396;6.722;2022-08-11T17:16:00;3.70;;;1.60;;
52894;SDS011;38759;53.396;6.722;2022-08-11T17:18:43;6.53;;;1.75;;
52894;SDS011;38759;53.396;6.722;2022-08-11T17:21:22;6.82;;;1.50;;
52894;SDS011;38759;53.396;6.722;2022-08-11T17:24:05;3.38;;;1.40;;
52894;SDS011;38759;53.396;6.722;2022-08-11T17:26:44;8.38;;;1.60;;
52894;SDS011;38759;53.396;6.722;2022-08-11T17:29:25;4.03;;;1.30;;
52894;SDS011;38759;53.396;6.722;2022-08-11T17:31:58;6.40;;;1.58;;
52894;SDS011;38759;53.396;6.722;2022-08-11T17:34:45;3.53;;;1.55;;
52894;SDS011;38759;53.396;6.722;2022-08-11T17:37:32;6.55;;;1.60;;
52894;SDS011;38759;53.396;6.722;2022-08-11T17:40:03;4.15;;;1.80;;
52894;SDS011;38759;53.396;6.722;2022-08-11T17:42:31;8.10;;;1.60;;
52894;SDS011;38759;53.396;6.722;2022-08-11T17:45:20;11.48;;;1.77;;
52894;SDS011;38759;53.396;6.722;2022-08-11T17:48:05;4.22;;;1.50;;
52894;SDS011;38759;53.396;6.722;2022-08-11T17:50:55;4.65;;;1.33;;
52894;SDS011;38759;53.396;6.722;2022-08-11T17:53:33;6.57;;;1.60;;
52894;SDS011;38759;53.396;6.722;2022-08-11T17:56:23;4.30;;;1.65;;
52894;SDS011;38759;53.396;6.722;2022-08-11T17:59:08;3.78;;;1.50;;
52894;SDS011;38759;53.396;6.722;2022-08-11T18:01:53;3.03;;;1.50;;
52894;SDS011;38759;53.396;6.722;2022-08-11T18:04:42;4.93;;;1.55;;
52894;SDS011;38759;53.396;6.722;2022-08-11T18:07:09;6.43;;;1.40;;
52894;SDS011;38759;53.396;6.722;2022-08-11T18:09:54;3.13;;;1.40;;
52894;SDS011;38759;53.396;6.722;2022-08-11T18:12:39;7.38;;;1.38;;
52894;SDS011;38759;53.396;6.722;2022-08-11T18:15:25;2.90;;;1.30;;
52894;SDS011;38759;53.396;6.722;2022-08-11T18:18:09;4.20;;;1.60;;
52894;SDS011;38759;53.396;6.722;2022-08-11T18:20:53;7.63;;;1.45;;
52894;SDS011;38759;53.396;6.722;2022-08-11T18:23:37;5.72;;;1.70;;
52894;SDS011;38759;53.396;6.722;2022-08-11T18:26:21;6.00;;;1.87;;
52894;SDS011;38759;53.396;6.722;2022-08-11T18:31:51;3.22;;;1.80;;
52894;SDS011;38759;53.396;6.722;2022-08-11T18:34:39;4.15;;;2.00;;
52894;SDS011;38759;53.396;6.722;2022-08-11T18:37:26;6.50;;;2.15;;
52894;SDS011;38759;53.396;6.722;2022-08-11T18:40:17;5.82;;;2.22;;
52894;SDS011;38759;53.396;6.722;2022-08-11T18:43:06;8.15;;;2.15;;
52894;SDS011;38759;53.396;6.722;2022-08-11T18:45:52;4.45;;;1.73;;
52894;SDS011;38759;53.396;6.722;2022-08-11T18:48:46;4.88;;;1.90;;
52894;SDS011;38759;53.396;6.722;2022-08-11T18:51:31;3.25;;;1.60;;
52894;SDS011;38759;53.396;6.722;2022-08-11T18:54:16;6.15;;;1.98;;
52894;SDS011;38759;53.396;6.722;2022-08-11T18:57:03;5.82;;;2.13;;
52894;SDS011;38759;53.396;6.722;2022-08-11T18:59:50;8.05;;;2.17;;
52894;SDS011;38759;53.396;6.722;2022-08-11T19:05:21;6.83;;;2.37;;
52894;SDS011;38759;53.396;6.722;2022-08-11T19:08:06;7.28;;;2.72;;
52894;SDS011;38759;53.396;6.722;2022-08-11T19:10:52;7.78;;;2.58;;
52894;SDS011;38759;53.396;6.722;2022-08-11T19:13:38;3.33;;;2.50;;
52894;SDS011;38759;53.396;6.722;2022-08-11T19:16:25;6.85;;;2.90;;
52894;SDS011;38759;53.396;6.722;2022-08-11T19:19:11;5.78;;;3.20;;
52894;SDS011;38759;53.396;6.722;2022-08-11T19:21:57;8.95;;;3.20;;
52894;SDS011;38759;53.396;6.722;2022-08-11T19:24:44;13.85;;;3.30;;
52894;SDS011;38759;53.396;6.722;2022-08-11T19:27:30;6.10;;;3.10;;
52894;SDS011;38759;53.396;6.722;2022-08-11T19:33:00;6.85;;;2.90;;
52894;SDS011;38759;53.396;6.722;2022-08-11T19:35:45;9.55;;;2.85;;
52894;SDS011;38759;53.396;6.722;2022-08-11T19:38:31;8.50;;;3.00;;
52894;SDS011;38759;53.396;6.722;2022-08-11T19:41:16;5.40;;;2.70;;
52894;SDS011;38759;53.396;6.722;2022-08-11T19:44:01;8.48;;;3.10;;
52894;SDS011;38759;53.396;6.722;2022-08-11T19:46:47;9.07;;;3.10;;
52894;SDS011;38759;53.396;6.722;2022-08-11T19:49:33;4.00;;;3.05;;
52894;SDS011;38759;53.396;6.722;2022-08-11T19:52:19;9.05;;;3.53;;
52894;SDS011;38759;53.396;6.722;2022-08-11T19:55:04;5.82;;;3.45;;
52894;SDS011;38759;53.396;6.722;2022-08-11T19:57:49;7.18;;;3.53;;